createdAt,value
2022-08-14T00:02:18.584Z,23.00
2022-08-14T00:07:19.271Z,23.00
2022-08-14T00:12:23.516Z,22.90
2022-08-14T00:17:16.292Z,22.90
2022-08-14T00:22:22.069Z,22.80
2022-08-14T00:27:19.925Z,22.80
2022-08-14T00:32:50.399Z,22.70
2022-08-14T00:37:26.454Z,22.70
2022-08-14T00:42:53.038Z,22.70
2022-08-14T00:47:22.647Z,22.60
2022-08-14T00:52:23.297Z,22.50
2022-08-14T00:57:33.985Z,22.50
2022-08-14T01:02:24.943Z,22.40
2022-08-14T01:07:27.236Z,22.40
2022-08-14T01:12:34.153Z,22.30
2022-08-14T01:17:29.472Z,22.20
2022-08-14T01:22:34.955Z,22.20
2022-08-14T01:27:31.404Z,22.10
2022-08-14T01:32:31.457Z,22.10
2022-08-14T01:37:32.462Z,22.00
2022-08-14T01:42:37.759Z,22.00
2022-08-14T01:47:37.166Z,22.00
2022-08-14T01:52:57.725Z,22.00
2022-08-14T01:57:49.869Z,21.90
2022-08-14T02:02:40.366Z,21.90
2022-08-14T02:07:53.376Z,21.90
2022-08-14T02:12:40.168Z,21.90
2022-08-14T02:17:40.362Z,21.90
2022-08-14T02:22:47.540Z,21.80
2022-08-14T02:28:19.684Z,21.80
2022-08-14T02:32:47.507Z,21.80
2022-08-14T02:37:47.737Z,21.80
2022-08-14T02:42:51.558Z,21.80
2022-08-14T02:47:53.859Z,21.80
2022-08-14T02:52:56.953Z,21.80
2022-08-14T02:57:51.759Z,21.80
2022-08-14T03:02:56.658Z,21.80
2022-08-14T03:07:50.045Z,21.80
2022-08-14T03:12:50.686Z,21.70
2022-08-14T03:17:56.713Z,21.70
2022-08-14T03:22:52.086Z,21.70
2022-08-14T03:27:58.208Z,21.70
2022-08-14T03:32:53.514Z,21.70
2022-08-14T03:39:11.250Z,21.70
2022-08-14T03:42:54.823Z,21.60
2022-08-14T03:47:56.187Z,21.70
2022-08-14T03:53:00.535Z,21.60
2022-08-14T03:58:00.296Z,21.60
2022-08-14T04:03:00.260Z,21.60
2022-08-14T04:08:08.687Z,21.60
2022-08-14T04:13:06.594Z,21.60
2022-08-14T04:18:07.306Z,21.60
2022-08-14T04:23:07.979Z,21.60
2022-08-14T04:28:03.876Z,21.60
2022-08-14T04:33:08.665Z,21.50
2022-08-14T04:38:07.647Z,21.60
2022-08-14T04:43:05.790Z,21.50
2022-08-14T04:48:06.360Z,21.50
2022-08-14T04:53:09.952Z,21.50
2022-08-14T04:58:21.324Z,21.50
2022-08-14T05:03:11.176Z,21.50
2022-08-14T05:08:11.930Z,21.50
2022-08-14T05:13:15.486Z,21.50
2022-08-14T05:18:37.323Z,21.50
2022-08-14T05:23:13.926Z,21.50
2022-08-14T05:28:20.460Z,21.50
2022-08-14T05:33:15.422Z,21.50
2022-08-14T05:38:22.161Z,21.60
2022-08-14T05:43:16.658Z,21.60
2022-08-14T05:48:23.363Z,21.50
2022-08-14T05:53:20.875Z,21.60
2022-08-14T05:58:21.852Z,21.60
2022-08-14T06:03:22.051Z,21.60
2022-08-14T06:08:35.374Z,21.60
2022-08-14T06:13:24.037Z,21.60
2022-08-14T06:18:26.703Z,21.70
2022-08-14T06:23:28.761Z,21.70
2022-08-14T06:28:27.612Z,21.80
2022-08-14T06:33:30.021Z,21.80
2022-08-14T06:38:26.525Z,21.90
2022-08-14T06:43:32.691Z,21.90
2022-08-14T06:48:28.082Z,21.90
2022-08-14T06:53:28.666Z,22.00
2022-08-14T06:58:30.689Z,22.00
2022-08-14T07:03:32.703Z,22.10
2022-08-14T07:08:35.454Z,22.10
2022-08-14T07:13:35.569Z,22.20
2022-08-14T07:18:37.735Z,22.30
2022-08-14T07:26:39.803Z,22.40
2022-08-14T07:31:39.251Z,22.50
2022-08-14T07:36:53.815Z,22.60
2022-08-14T07:41:48.141Z,22.70
2022-08-14T07:46:48.855Z,22.70
2022-08-14T07:51:44.468Z,22.80
2022-08-14T07:56:48.427Z,22.90
2022-08-14T08:01:47.903Z,23.00
2022-08-14T08:06:46.408Z,23.10
2022-08-14T08:11:47.107Z,23.20
2022-08-14T08:16:52.617Z,23.30
2022-08-14T08:21:56.042Z,23.40
2022-08-14T08:26:51.852Z,23.50
2022-08-14T08:31:52.510Z,23.60
2022-08-14T08:36:53.210Z,23.70
2022-08-14T08:41:58.766Z,23.80
2022-08-14T08:46:54.433Z,24.00
2022-08-14T08:52:00.477Z,24.10
2022-08-14T08:57:01.038Z,24.20
2022-08-14T09:02:06.700Z,24.30
2022-08-14T09:07:09.677Z,24.40
2022-08-14T09:12:07.933Z,24.50
2022-08-14T09:17:03.731Z,24.60
2022-08-14T09:31:42.494Z,24.90
2022-08-14T09:36:46.907Z,25.10
2022-08-14T09:42:18.072Z,25.20
2022-08-14T09:46:43.252Z,25.30
2022-08-14T09:51:51.699Z,25.40
2022-08-14T09:56:44.539Z,25.50
2022-08-14T10:01:52.526Z,25.60
2022-08-14T10:06:48.579Z,25.60
2022-08-14T10:11:58.802Z,25.80
2022-08-14T10:16:54.787Z,25.80
2022-08-14T10:21:58.956Z,25.90
2022-08-14T10:26:51.227Z,26.10
2022-08-14T10:31:51.917Z,26.20
2022-08-14T10:37:02.111Z,26.30
2022-08-14T10:42:00.908Z,26.30
2022-08-14T10:47:37.781Z,26.40
2022-08-14T10:51:57.238Z,26.50
2022-08-14T10:57:03.602Z,26.60
2022-08-14T11:01:58.616Z,26.70
2022-08-14T11:07:06.837Z,26.70
2022-08-14T11:12:33.474Z,26.70
2022-08-14T11:17:08.176Z,26.80
2022-08-14T11:22:08.786Z,26.80
2022-08-14T11:27:04.668Z,26.80
2022-08-14T11:32:10.170Z,26.90
2022-08-14T11:37:16.038Z,26.90
2022-08-14T11:42:56.084Z,27.00
2022-08-14T11:48:10.915Z,27.00
2022-08-14T11:52:12.416Z,27.10
2022-08-14T12:02:36.145Z,27.20
2022-08-14T12:07:23.155Z,27.30
2022-08-14T12:11:43.641Z,27.30
2022-08-14T12:16:46.014Z,27.40
2022-08-14T12:21:48.189Z,27.50
2022-08-14T12:26:45.012Z,27.50
2022-08-14T12:31:46.879Z,27.60
2022-08-14T12:36:46.063Z,27.60
2022-08-14T12:41:53.807Z,27.70
2022-08-14T12:57:34.795Z,27.70
2022-08-14T13:01:56.655Z,27.70
2022-08-14T13:06:52.548Z,27.70
2022-08-14T13:11:58.759Z,27.70
2022-08-14T13:16:54.127Z,27.80
2022-08-14T13:21:59.272Z,27.80
2022-08-14T13:27:02.388Z,27.80
2022-08-14T13:31:58.327Z,27.80
2022-08-14T13:36:59.460Z,27.70
2022-08-14T13:42:04.472Z,27.70
2022-08-14T13:47:00.192Z,27.70
2022-08-14T13:52:03.454Z,27.80
2022-08-14T13:57:05.127Z,27.80
2022-08-14T14:02:04.699Z,27.80
2022-08-14T14:07:05.199Z,27.80
2022-08-14T14:13:15.551Z,27.80
2022-08-14T14:17:06.980Z,27.80
2022-08-14T14:26:41.550Z,27.80
2022-08-14T14:31:41.268Z,27.90
2022-08-14T14:36:49.990Z,27.90
2022-08-14T14:41:47.605Z,27.90
2022-08-14T14:46:44.084Z,27.90
2022-08-14T14:51:43.625Z,28.00
2022-08-14T14:56:52.223Z,28.00
2022-08-14T15:01:52.445Z,28.00
2022-08-14T15:06:48.217Z,28.00
2022-08-14T15:11:48.501Z,28.10
2022-08-14T15:16:54.164Z,28.10
2022-08-14T15:21:54.673Z,28.10
2022-08-14T15:26:58.871Z,28.10
2022-08-14T15:31:58.550Z,28.20
2022-08-14T15:36:54.433Z,28.20
2022-08-14T15:41:59.852Z,28.20
2022-08-14T15:46:55.678Z,28.20
2022-08-14T15:51:56.309Z,28.20
2022-08-14T15:57:01.758Z,28.30
2022-08-14T16:02:04.964Z,28.30
2022-08-14T16:07:06.684Z,28.30
2022-08-14T16:12:01.262Z,28.30
2022-08-14T16:17:02.680Z,28.30
2022-08-14T16:22:58.003Z,28.30
2022-08-14T16:27:03.026Z,28.30
2022-08-14T16:32:32.402Z,28.30
2022-08-14T16:37:11.831Z,28.30
2022-08-14T19:33:31.843Z,27.80
2022-08-14T19:41:51.819Z,27.80
2022-08-14T19:47:01.625Z,27.70
2022-08-14T19:51:44.599Z,27.60
2022-08-14T19:56:45.215Z,27.60
2022-08-14T20:01:43.391Z,27.60
2022-08-14T20:11:44.759Z,27.50
2022-08-14T20:16:38.219Z,27.40
2022-08-14T20:21:35.055Z,27.30
2022-08-14T20:26:39.300Z,27.20
2022-08-14T20:31:36.740Z,27.10
2022-08-14T20:36:33.887Z,27.00
2022-08-14T20:46:42.236Z,26.80
2022-08-14T20:51:47.587Z,26.70
2022-08-14T20:56:37.438Z,26.60
2022-08-14T21:01:41.809Z,26.50
2022-08-14T21:06:49.237Z,26.50
2022-08-14T21:11:33.076Z,26.40
2022-08-14T21:16:36.901Z,26.30
2022-08-14T21:31:41.595Z,26.10
2022-08-14T21:42:18.225Z,26.00
2022-08-14T21:46:44.808Z,26.00
2022-08-14T21:51:52.583Z,25.90
2022-08-14T21:56:37.523Z,25.90
2022-08-14T22:06:40.592Z,25.80
2022-08-14T22:11:37.530Z,25.70
2022-08-14T22:17:00.379Z,25.70
2022-08-14T22:22:00.299Z,25.70
2022-08-14T22:26:56.031Z,25.70
2022-08-14T22:31:49.348Z,25.60
2022-08-14T22:36:45.134Z,25.60
2022-08-14T22:46:53.576Z,25.50
2022-08-14T22:51:48.245Z,25.50
2022-08-14T22:56:48.595Z,25.40
2022-08-14T23:01:55.945Z,25.40
2022-08-14T23:07:01.834Z,25.40
2022-08-14T23:11:48.037Z,25.30
2022-08-14T23:16:49.507Z,25.30
2022-08-14T23:21:50.826Z,25.20
2022-08-14T23:32:20.056Z,25.20
2022-08-14T23:36:55.275Z,25.10
2022-08-14T23:41:53.288Z,25.10
2022-08-14T23:46:56.809Z,25.00
2022-08-14T23:52:51.743Z,25.00
2022-08-14T23:56:59.863Z,25.00
